| time (UTC) | temp C | wind direction | speed KPH | gust KPH | rain 1hr cm | rain 24hr cm | rain mn cm | humidity % | barometer mb |
| 20260510051215 | 19 | 130 | 0.0 | 0.0 | 0.00 | 0.05 | 0.05 | 99 | 1010.4 |
| 20260510050712 | 19 | 130 | 0.0 | 0.0 | 0.13 | 0.05 | 0.05 | 99 | 1010.5 |
| 20260510050210 | 19 | 136 | 0.0 | 0.0 | 0.13 | 0.05 | 0.05 | 99 | 1010.6 |
| 20260510045706 | 19 | 136 | 0.0 | 0.0 | 0.00 | 0.03 | 0.03 | 98 | 1010.5 |
| 20260510045203 | 19 | 136 | 0.0 | 1.6 | 0.00 | 0.03 | 0.03 | 99 | 1010.5 |
| 20260510044659 | 19 | 136 | 0.0 | 0.0 | 0.00 | 0.03 | 0.03 | 99 | 1010.3 |
| 20260510044157 | 19 | 136 | 0.0 | 1.6 | 0.18 | 0.03 | 0.03 | 99 | 1010.6 |
| 20260510043652 | 19 | 137 | 0.0 | 0.0 | 0.18 | 0.03 | 0.03 | 99 | 1010.8 |
| 20260510043149 | 19 | 137 | 0.0 | 0.0 | 0.00 | 0.00 | 0.00 | 98 | 1010.5 |
| 20260510042647 | 19 | 137 | 0.0 | 0.0 | 0.00 | 0.00 | 0.00 | 98 | 1010.6 |
| 20260510042142 | 19 | 136 | 0.0 | 0.0 | 0.00 | 0.00 | 0.00 | 98 | 1010.5 |
| 20260510041640 | 19 | 137 | 0.0 | 0.0 | 0.00 | 0.00 | 0.00 | 98 | 1010.7 |
| 20260510041136 | 19 | 137 | 0.0 | 0.0 | 0.00 | 0.00 | 0.00 | 98 | 1010.6 |
| 20260510040634 | 19 | 137 | 0.0 | 0.0 | 0.00 | 0.00 | 0.00 | 98 | 1010.6 |
| 20260510040130 | 19 | 137 | 0.0 | 0.0 | 0.00 | 0.00 | 0.00 | 98 | 1010.2 |
| 20260510035626 | 19 | 137 | 0.0 | 0.0 | 0.00 | 0.97 | 0.97 | 98 | 1010.6 |
| 20260510035121 | 19 | 137 | 0.0 | 0.0 | 0.00 | 0.97 | 0.97 | 98 | 1010.2 |
| 20260510034618 | 19 | 137 | 0.0 | 0.0 | 0.00 | 0.97 | 0.97 | 98 | 1010.6 |
| 20260510034115 | 19 | 137 | 0.0 | 0.0 | 0.00 | 0.97 | 0.97 | 98 | 1010.4 |
| 20260510033612 | 19 | 137 | 0.0 | 0.0 | 0.00 | 0.97 | 0.97 | 98 | 1010.2 |
| 20260510033109 | 19 | 137 | 0.0 | 0.0 | 0.00 | 0.97 | 0.97 | 98 | 1010.2 |
| 20260510032605 | 19 | 137 | 0.0 | 0.0 | 0.00 | 0.97 | 0.97 | 98 | 1010.0 |
| 20260510032101 | 19 | 137 | 0.0 | 0.0 | 0.00 | 0.97 | 0.97 | 98 | 1010.0 |
| 20260510031556 | 19 | 137 | 0.0 | 0.0 | 0.00 | 0.97 | 0.97 | 98 | 1010.1 |
| 20260510031052 | 20 | 137 | 0.0 | 0.0 | 0.00 | 0.97 | 0.97 | 98 | 1010.1 |
| 20260510030548 | 20 | 137 | 0.0 | 1.6 | 0.00 | 0.97 | 0.97 | 98 | 1010.1 |
| 20260510030046 | 20 | 136 | 0.0 | 0.0 | 0.00 | 0.97 | 0.97 | 98 | 1010.2 |
| 20260510025542 | 20 | 137 | 0.0 | 0.0 | 0.00 | 0.97 | 0.97 | 98 | 1010.0 |
| 20260510025040 | 20 | 137 | 0.0 | 0.0 | 0.00 | 0.97 | 0.97 | 98 | 1009.9 |
| 20260510024536 | 20 | 137 | 0.0 | 0.0 | 0.00 | 0.97 | 0.97 | 98 | 1010.0 |
| 20260510024033 | 20 | 137 | 0.0 | 0.0 | 0.00 | 0.97 | 0.97 | 98 | 1009.9 |
| 20260510023529 | 20 | 137 | 0.0 | 0.0 | 0.00 | 0.97 | 0.97 | 98 | 1010.0 |
| 20260510023026 | 20 | 136 | 0.0 | 0.0 | 0.00 | 0.97 | 0.97 | 98 | 1009.8 |
| 20260510022526 | 20 | 136 | 0.0 | 0.0 | 0.00 | 0.97 | 0.97 | 98 | 1009.9 |
| 20260510022020 | 20 | 138 | 0.0 | 0.0 | 0.00 | 0.97 | 0.97 | 98 | 1009.9 |
| 20260510021517 | 20 | 139 | 0.0 | 0.0 | 0.00 | 0.97 | 0.97 | 98 | 1009.9 |
| 20260510021015 | 20 | 138 | 0.0 | 0.0 | 0.00 | 0.97 | 0.97 | 98 | 1009.7 |
| 20260510020509 | 20 | 139 | 0.0 | 0.0 | 0.00 | 0.97 | 0.97 | 98 | 1009.7 |
| 20260510020005 | 20 | 139 | 0.0 | 0.0 | 0.00 | 0.97 | 0.97 | 98 | 1009.9 |
| 20260510015500 | 20 | 139 | 0.0 | 0.0 | 0.00 | 0.97 | 0.97 | 98 | 1009.5 |
| 20260510014956 | 20 | 139 | 0.0 | 0.0 | 0.00 | 0.97 | 0.97 | 98 | 1009.7 |
| 20260510014454 | 20 | 139 | 0.0 | 0.0 | 0.00 | 0.97 | 0.97 | 98 | 1009.7 |
| 20260510013950 | 20 | 146 | 1.6 | 1.6 | 0.00 | 0.97 | 0.97 | 98 | 1009.6 |
| 20260510013444 | 20 | 126 | 0.0 | 0.0 | 0.00 | 0.97 | 0.97 | 98 | 1009.8 |
| 20260510012940 | 20 | 125 | 0.0 | 0.0 | 0.00 | 0.97 | 0.97 | 98 | 1009.9 |
| 20260510012435 | 20 | 180 | 0.0 | 0.0 | 0.00 | 0.97 | 0.97 | 98 | 1009.8 |
| 20260510011931 | 20 | 186 | 0.0 | 0.0 | 0.00 | 0.97 | 0.97 | 98 | 1009.7 |
| 20260510011425 | 20 | 176 | 0.0 | 0.0 | 0.00 | 0.97 | 0.97 | 98 | 1009.5 |
| 20260510010922 | 20 | 152 | 0.0 | 0.0 | 0.13 | 0.97 | 0.97 | 98 | 1009.3 |
| 20260510010420 | 20 | 152 | 0.0 | 0.0 | 0.13 | 0.97 | 0.97 | 98 | 1009.3 |
| 20260510005916 | 20 | 152 | 0.0 | 0.0 | 0.00 | 0.94 | 0.94 | 98 | 1009.2 |
| 20260510005412 | 20 | 132 | 0.0 | 1.6 | 0.00 | 0.94 | 0.94 | 98 | 1009.4 |
| 20260510004910 | 20 | 171 | 0.0 | 0.0 | 0.00 | 0.94 | 0.94 | 98 | 1009.5 |
| 20260510004407 | 20 | 177 | 0.0 | 0.0 | 0.00 | 0.94 | 0.94 | 98 | 1009.4 |
| 20260510003905 | 20 | 173 | 0.0 | 0.0 | 0.00 | 0.94 | 0.94 | 98 | 1009.4 |
| 20260510003401 | 20 | 173 | 0.0 | 0.0 | 0.00 | 0.94 | 0.94 | 97 | 1009.4 |
| 20260510002900 | 20 | 184 | 1.6 | 1.6 | 0.00 | 0.94 | 0.94 | 97 | 1009.5 |
| 20260510002358 | 20 | 157 | 1.6 | 1.6 | 0.00 | 0.94 | 0.94 | 97 | 1009.5 |
| 20260510001854 | 20 | 177 | 0.0 | 0.0 | 0.00 | 0.94 | 0.94 | 97 | 1009.3 |
| 20260510001352 | 20 | 176 | 0.0 | 1.6 | 0.00 | 0.94 | 0.94 | 97 | 1009.3 |
| 20260510000848 | 20 | 175 | 1.6 | 1.6 | 0.00 | 0.94 | 0.94 | 97 | 1009.1 |
| 20260510000348 | 20 | 210 | 1.6 | 1.6 | 0.00 | 0.94 | 0.94 | 97 | 1009.2 |
| 20260509235842 | 20 | 166 | 1.6 | 1.6 | 0.00 | 0.94 | 0.94 | 97 | 1009.3 |
| 20260509235339 | 20 | 133 | 1.6 | 1.6 | 0.00 | 0.94 | 0.94 | 97 | 1009.1 |
| 20260509234835 | 20 | 193 | 0.0 | 1.6 | 0.00 | 0.94 | 0.94 | 97 | 1009.1 |
| 20260509234332 | 20 | 193 | 0.0 | 0.0 | 0.00 | 0.94 | 0.94 | 97 | 1009.2 |
| 20260509233830 | 20 | 193 | 0.0 | 0.0 | 0.00 | 0.94 | 0.94 | 97 | 1008.9 |
| 20260509233327 | 20 | 178 | 1.6 | 1.6 | 0.00 | 0.94 | 0.94 | 97 | 1009.0 |
| 20260509232822 | 20 | 152 | 1.6 | 1.6 | 0.00 | 0.94 | 0.94 | 97 | 1008.9 |
| 20260509232321 | 20 | 157 | 1.6 | 1.6 | 0.00 | 0.94 | 0.94 | 97 | 1008.7 |
| 20260509231817 | 20 | 186 | 0.0 | 0.0 | 0.00 | 0.94 | 0.94 | 97 | 1008.8 |
| 20260509231314 | 20 | 184 | 1.6 | 1.6 | 0.00 | 0.94 | 0.94 | 97 | 1008.5 |
| 20260509230812 | 20 | 185 | 1.6 | 1.6 | 0.00 | 0.94 | 0.94 | 97 | 1008.6 |
| 20260509230308 | 20 | 185 | 0.0 | 0.0 | 0.00 | 0.94 | 0.94 | 96 | 1008.3 |
| 20260509225803 | 20 | 184 | 0.0 | 1.6 | 0.00 | 0.94 | 0.94 | 96 | 1008.5 |
| 20260509225300 | 20 | 186 | 1.6 | 1.6 | 0.00 | 0.94 | 0.94 | 96 | 1008.3 |
| 20260509224756 | 20 | 154 | 0.0 | 0.0 | 0.00 | 0.94 | 0.94 | 96 | 1008.4 |
| 20260509224253 | 20 | 86 | 1.6 | 3.2 | 0.18 | 0.94 | 0.94 | 96 | 1008.3 |
| 20260509223749 | 20 | 120 | 0.0 | 0.0 | 0.18 | 0.94 | 0.94 | 96 | 1008.4 |
| 20260509223247 | 20 | 120 | 0.0 | 0.0 | 0.13 | 0.91 | 0.91 | 95 | 1008.6 |
| 20260509222743 | 20 | 96 | 1.6 | 3.2 | 0.13 | 0.91 | 0.91 | 95 | 1008.4 |
| 20260509222239 | 20 | 23 | 3.2 | 3.2 | 0.00 | 0.89 | 0.89 | 95 | 1008.5 |
| 20260509221734 | 20 | 146 | 1.6 | 1.6 | 0.00 | 0.89 | 0.89 | 95 | 1008.9 |
| 20260509221231 | 20 | 146 | 0.0 | 1.6 | 0.18 | 0.89 | 0.89 | 95 | 1008.7 |
| 20260509220727 | 21 | 147 | 0.0 | 0.0 | 0.18 | 0.89 | 0.89 | 96 | 1008.6 |
| 20260509220224 | 21 | 147 | 0.0 | 0.0 | 0.18 | 0.89 | 0.89 | 96 | 1008.7 |
| 20260509215719 | 21 | 171 | 0.0 | 0.0 | 0.00 | 0.86 | 0.86 | 95 | 1008.6 |
| 20260509215216 | 21 | 168 | 0.0 | 0.0 | 0.00 | 0.86 | 0.86 | 95 | 1008.6 |
| 20260509214713 | 21 | 168 | 0.0 | 0.0 | 0.00 | 0.86 | 0.86 | 95 | 1008.7 |
| 20260509214210 | 21 | 133 | 0.0 | 0.0 | 0.00 | 0.86 | 0.86 | 95 | 1008.4 |
| 20260509213707 | 21 | 132 | 0.0 | 0.0 | 0.00 | 0.86 | 0.86 | 95 | 1008.4 |
| 20260509213202 | 21 | 136 | 0.0 | 0.0 | 0.13 | 0.86 | 0.86 | 95 | 1008.6 |
| 20260509212701 | 21 | 142 | 0.0 | 0.0 | 0.13 | 0.86 | 0.86 | 95 | 1008.8 |
| 20260509212157 | 21 | 180 | 0.0 | 0.0 | 0.00 | 0.84 | 0.84 | 95 | 1008.8 |
| 20260509211653 | 21 | 179 | 1.6 | 1.6 | 0.00 | 0.84 | 0.84 | 95 | 1009.0 |
| 20260509211149 | 21 | 190 | 1.6 | 1.6 | 0.00 | 0.84 | 0.84 | 94 | 1008.9 |
| 20260509210646 | 21 | 121 | 0.0 | 1.6 | 0.00 | 0.84 | 0.84 | 94 | 1008.5 |
| 20260509210143 | 21 | 183 | 0.0 | 0.0 | 0.00 | 0.84 | 0.84 | 94 | 1008.6 |
| 20260509205639 | 21 | 175 | 0.0 | 0.0 | 0.00 | 0.84 | 0.84 | 94 | 1008.7 |
| 20260509205133 | 21 | 145 | 1.6 | 1.6 | 0.00 | 0.84 | 0.84 | 94 | 1008.6 |
| 20260509204629 | 21 | 191 | 1.6 | 3.2 | 0.00 | 0.84 | 0.84 | 95 | 1008.7 |
| 20260509204126 | 21 | 186 | 0.0 | 0.0 | 0.00 | 0.84 | 0.84 | 94 | 1008.6 |
| 20260509203622 | 21 | 189 | 1.6 | 1.6 | 0.00 | 0.84 | 0.84 | 94 | 1008.8 |
| 20260509203120 | 21 | 184 | 1.6 | 1.6 | 0.00 | 0.84 | 0.84 | 94 | 1008.8 |
| 20260509202620 | 21 | 172 | 3.2 | 3.2 | 0.00 | 0.84 | 0.84 | 95 | 1008.9 |
| 20260509202115 | 21 | 197 | 3.2 | 3.2 | 0.00 | 0.84 | 0.84 | 95 | 1008.8 |
| 20260509201610 | 21 | 188 | 1.6 | 1.6 | 0.00 | 0.84 | 0.84 | 95 | 1008.9 |
| 20260509201109 | 21 | 184 | 4.8 | 4.8 | 0.00 | 0.84 | 0.84 | 95 | 1008.9 |
| 20260509200603 | 21 | 195 | 4.8 | 4.8 | 0.00 | 0.84 | 0.84 | 95 | 1009.3 |
| 20260509200059 | 21 | 178 | 3.2 | 4.8 | 0.00 | 0.84 | 0.84 | 95 | 1008.9 |
| 20260509195554 | 21 | 174 | 3.2 | 3.2 | 0.00 | 0.84 | 0.84 | 95 | 1009.1 |
| 20260509195050 | 21 | 186 | 1.6 | 1.6 | 0.00 | 0.84 | 0.84 | 95 | 1008.9 |
| 20260509194549 | 21 | 203 | 3.2 | 4.8 | 0.00 | 0.84 | 0.84 | 95 | 1009.0 |
| 20260509194047 | 21 | 213 | 3.2 | 3.2 | 0.00 | 0.84 | 0.84 | 95 | 1008.8 |
| 20260509193542 | 21 | 205 | 1.6 | 1.6 | 0.00 | 0.84 | 0.84 | 95 | 1008.8 |
| 20260509193039 | 21 | 198 | 1.6 | 3.2 | 0.00 | 0.84 | 0.84 | 95 | 1008.8 |
| 20260509192536 | 21 | 209 | 0.0 | 1.6 | 0.00 | 0.84 | 0.84 | 95 | 1008.7 |
| 20260509192031 | 21 | 150 | 0.0 | 0.0 | 0.00 | 0.84 | 0.84 | 96 | 1008.9 |
| 20260509191525 | 20 | 208 | 1.6 | 1.6 | 0.18 | 0.84 | 0.84 | 95 | 1008.9 |
| 20260509191021 | 20 | 193 | 1.6 | 1.6 | 0.18 | 0.84 | 0.84 | 96 | 1008.9 |
| 20260509190519 | 20 | 158 | 0.0 | 1.6 | 0.00 | 0.81 | 0.81 | 95 | 1008.4 |
| 20260509190017 | 20 | 174 | 0.0 | 1.6 | 0.00 | 0.81 | 0.81 | 95 | 1008.6 |
| 20260509185514 | 20 | 165 | 0.0 | 0.0 | 0.00 | 0.81 | 0.81 | 95 | 1008.7 |
| 20260509185010 | 20 | 105 | 1.6 | 1.6 | 0.18 | 0.81 | 0.81 | 95 | 1008.9 |
| 20260509184509 | 20 | 180 | 1.6 | 1.6 | 0.18 | 0.81 | 0.81 | 95 | 1009.0 |
| 20260509184004 | 20 | 167 | 0.0 | 1.6 | 0.00 | 0.79 | 0.79 | 95 | 1008.9 |
| 20260509183459 | 20 | 187 | 1.6 | 3.2 | 0.13 | 0.79 | 0.79 | 95 | 1008.8 |
| 20260509182955 | 20 | 145 | 0.0 | 0.0 | 0.13 | 0.79 | 0.79 | 95 | 1008.9 |
| 20260509182452 | 20 | 151 | 1.6 | 1.6 | 0.13 | 0.79 | 0.79 | 95 | 1009.2 |
| 20260509181949 | 20 | 157 | 0.0 | 0.0 | 0.18 | 0.76 | 0.76 | 95 | 1009.3 |
| 20260509181447 | 20 | 195 | 1.6 | 1.6 | 0.18 | 0.76 | 0.76 | 95 | 1009.8 |
| 20260509180944 | 20 | 168 | 0.0 | 1.6 | 0.13 | 0.74 | 0.74 | 95 | 1009.9 |
| 20260509180440 | 20 | 169 | 1.6 | 1.6 | 0.43 | 0.74 | 0.74 | 95 | 1010.1 |
| 20260509175937 | 20 | 229 | 3.2 | 3.2 | 1.37 | 0.71 | 0.71 | 95 | 1010.1 |
| 20260509175433 | 21 | 149 | 0.0 | 1.6 | 1.19 | 0.64 | 0.64 | 95 | 1010.1 |
| 20260509174929 | 21 | 168 | 1.6 | 1.6 | 0.61 | 0.51 | 0.51 | 95 | 1010.2 |
| 20260509174426 | 21 | 200 | 3.2 | 4.8 | 0.30 | 0.43 | 0.43 | 95 | 1010.5 |
| 20260509173922 | 21 | 201 | 1.6 | 3.2 | 0.30 | 0.41 | 0.41 | 95 | 1010.5 |
| 20260509173421 | 21 | 184 | 4.8 | 4.8 | 0.30 | 0.38 | 0.38 | 95 | 1010.3 |
| 20260509172918 | 21 | 181 | 1.6 | 1.6 | 0.43 | 0.36 | 0.36 | 94 | 1010.3 |
| 20260509172415 | 21 | 208 | 4.8 | 4.8 | 0.61 | 0.33 | 0.33 | 94 | 1010.4 |
| 20260509171911 | 21 | 203 | 3.2 | 3.2 | 0.48 | 0.28 | 0.28 | 93 | 1010.3 |
| 20260509171407 | 21 | 179 | 0.0 | 1.6 | 0.36 | 0.23 | 0.23 | 92 | 1010.2 |
| 20260509170903 | 21 | 202 | 3.2 | 3.2 | 0.48 | 0.20 | 0.20 | 91 | 1010.1 |
| 20260509170359 | 22 | 186 | 3.2 | 3.2 | 0.61 | 0.18 | 0.18 | 90 | 1010.0 |
| 20260509165854 | 22 | 180 | 0.0 | 0.0 | 0.43 | 0.13 | 0.13 | 89 | 1010.2 |
| 20260509165349 | 22 | 169 | 0.0 | 1.6 | 0.13 | 0.08 | 0.08 | 87 | 1010.3 |
| 20260509164845 | 23 | 167 | 0.0 | 0.0 | 0.00 | 0.05 | 0.05 | 86 | 1010.1 |
| 20260509164341 | 23 | 165 | 0.0 | 0.0 | 0.00 | 0.05 | 0.05 | 85 | 1010.3 |
| 20260509163837 | 23 | 177 | 0.0 | 1.6 | 0.00 | 0.05 | 0.05 | 82 | 1010.2 |
| 20260509163334 | 23 | 194 | 1.6 | 3.2 | 0.00 | 0.05 | 0.05 | 83 | 1010.2 |
| 20260509162833 | 23 | 165 | 0.0 | 0.0 | 0.00 | 0.05 | 0.05 | 80 | 1010.0 |
| 20260509162326 | 23 | 164 | 1.6 | 1.6 | 0.00 | 0.05 | 0.05 | 80 | 1010.1 |
| 20260509161823 | 23 | 159 | 1.6 | 3.2 | 0.00 | 0.05 | 0.05 | 80 | 1009.9 |
| 20260509161319 | 24 | 195 | 1.6 | 1.6 | 0.00 | 0.05 | 0.05 | 80 | 1009.8 |
| 20260509160815 | 24 | 166 | 0.0 | 1.6 | 0.00 | 0.05 | 0.05 | 79 | 1010.1 |
| 20260509160311 | 24 | 186 | 1.6 | 1.6 | 0.00 | 0.05 | 0.05 | 81 | 1010.2 |
| 20260509155806 | 24 | 215 | 1.6 | 3.2 | 0.00 | 0.05 | 0.05 | 79 | 1009.9 |
| 20260509155306 | 25 | 188 | 1.6 | 1.6 | 0.00 | 0.05 | 0.05 | 79 | 1009.6 |
| 20260509154759 | 24 | 190 | 1.6 | 1.6 | 0.00 | 0.05 | 0.05 | 81 | 1009.8 |
| 20260509154256 | 24 | 170 | 1.6 | 1.6 | 0.00 | 0.05 | 0.05 | 81 | 1009.9 |
| 20260509153753 | 24 | 153 | 0.0 | 0.0 | 0.00 | 0.05 | 0.05 | 80 | 1009.9 |
| 20260509153249 | 23 | 174 | 0.0 | 1.6 | 0.00 | 0.05 | 0.05 | 81 | 1009.8 |
| 20260509152745 | 23 | 191 | 3.2 | 3.2 | 0.00 | 0.05 | 0.05 | 83 | 1009.8 |
| 20260509152242 | 23 | 17 | 4.8 | 8.0 | 0.00 | 0.05 | 0.05 | 82 | 1010.0 |
| 20260509151739 | 23 | 204 | 0.0 | 1.6 | 0.00 | 0.05 | 0.05 | 83 | 1010.0 |
| 20260509151235 | 23 | 200 | 4.8 | 4.8 | 0.00 | 0.05 | 0.05 | 84 | 1010.2 |
| 20260509150734 | 23 | 86 | 1.6 | 1.6 | 0.00 | 0.05 | 0.05 | 85 | 1009.9 |
| 20260509150232 | 23 | 215 | 1.6 | 3.2 | 0.00 | 0.05 | 0.05 | 86 | 1009.9 |
| 20260509145729 | 23 | 212 | 3.2 | 4.8 | 0.00 | 0.05 | 0.05 | 84 | 1010.2 |
| 20260509145229 | 23 | 174 | 0.0 | 1.6 | 0.00 | 0.05 | 0.05 | 87 | 1009.9 |
| 20260509144726 | 23 | 188 | 6.4 | 8.0 | 0.00 | 0.05 | 0.05 | 84 | 1010.2 |
| 20260509144222 | 23 | 227 | 6.4 | 9.7 | 0.00 | 0.05 | 0.05 | 85 | 1010.0 |
| 20260509143720 | 23 | 177 | 0.0 | 1.6 | 0.00 | 0.05 | 0.05 | 87 | 1010.1 |
| 20260509143217 | 23 | 189 | 1.6 | 1.6 | 0.00 | 0.05 | 0.05 | 88 | 1010.1 |
| 20260509142712 | 23 | 190 | 1.6 | 3.2 | 0.00 | 0.05 | 0.05 | 87 | 1010.2 |
| 20260509142209 | 22 | 214 | 1.6 | 3.2 | 0.00 | 0.05 | 0.05 | 88 | 1010.2 |
| 20260509141704 | 22 | 196 | 1.6 | 1.6 | 0.00 | 0.05 | 0.05 | 87 | 1010.2 |
| 20260509141202 | 22 | 186 | 3.2 | 4.8 | 0.00 | 0.05 | 0.05 | 87 | 1010.1 |
| 20260509140658 | 23 | 210 | 1.6 | 1.6 | 0.00 | 0.05 | 0.05 | 87 | 1010.1 |
| 20260509140156 | 23 | 194 | 3.2 | 3.2 | 0.00 | 0.05 | 0.05 | 88 | 1010.1 |
| 20260509135653 | 22 | 190 | 1.6 | 1.6 | 0.00 | 0.05 | 0.05 | 88 | 1010.1 |
| 20260509135152 | 22 | 188 | 4.8 | 4.8 | 0.00 | 0.05 | 0.05 | 87 | 1010.2 |
| 20260509134648 | 22 | 202 | 1.6 | 3.2 | 0.00 | 0.05 | 0.05 | 88 | 1010.2 |
| 20260509134145 | 22 | 184 | 1.6 | 1.6 | 0.00 | 0.05 | 0.05 | 89 | 1010.3 |
| 20260509133642 | 22 | 159 | 0.0 | 1.6 | 0.00 | 0.05 | 0.05 | 88 | 1010.3 |
| 20260509133139 | 22 | 184 | 1.6 | 1.6 | 0.00 | 0.05 | 0.05 | 89 | 1010.2 |
| 20260509132637 | 22 | 221 | 3.2 | 3.2 | 0.00 | 0.05 | 0.05 | 90 | 1010.0 |
| 20260509132136 | 21 | 163 | 1.6 | 1.6 | 0.00 | 0.05 | 0.05 | 93 | 1009.8 |
| 20260509131631 | 21 | 176 | 0.0 | 1.6 | 0.00 | 0.05 | 0.05 | 94 | 1010.0 |
| 20260509131129 | 21 | 186 | 1.6 | 1.6 | 0.00 | 0.05 | 0.05 | 95 | 1009.9 |
| 20260509130624 | 21 | 174 | 0.0 | 1.6 | 0.00 | 0.05 | 0.05 | 95 | 1009.9 |
| 20260509130121 | 21 | 166 | 0.0 | 0.0 | 0.00 | 0.05 | 0.05 | 96 | 1009.7 |
| 20260509125618 | 21 | 162 | 0.0 | 0.0 | 0.00 | 0.05 | 0.05 | 96 | 1009.7 |
| 20260509125114 | 20 | 120 | 0.0 | 0.0 | 0.00 | 0.05 | 0.05 | 96 | 1009.7 |
| 20260509124611 | 20 | 192 | 1.6 | 1.6 | 0.00 | 0.05 | 0.05 | 97 | 1009.8 |
| 20260509124108 | 20 | 183 | 1.6 | 1.6 | 0.00 | 0.05 | 0.05 | 97 | 1009.9 |
| 20260509123606 | 20 | 171 | 0.0 | 0.0 | 0.00 | 0.05 | 0.05 | 98 | 1009.7 |
| 20260509123102 | 20 | 179 | 0.0 | 0.0 | 0.00 | 0.05 | 0.05 | 98 | 1009.8 |
| 20260509122558 | 20 | 179 | 0.0 | 0.0 | 0.00 | 0.05 | 0.05 | 98 | 1009.7 |
| 20260509122056 | 19 | 121 | 0.0 | 0.0 | 0.00 | 0.05 | 0.05 | 99 | 1009.6 |
| 20260509121552 | 19 | 122 | 0.0 | 0.0 | 0.00 | 0.05 | 0.05 | 98 | 1009.6 |
| 20260509121050 | 18 | 122 | 0.0 | 0.0 | 0.00 | 0.05 | 0.05 | 98 | 1009.6 |
| 20260509120548 | 18 | 122 | 0.0 | 0.0 | 0.00 | 0.05 | 0.05 | 98 | 1009.4 |
| 20260509120046 | 18 | 122 | 0.0 | 0.0 | 0.00 | 0.05 | 0.05 | 98 | 1009.5 |
| 20260509115543 | 18 | 122 | 0.0 | 0.0 | 0.00 | 0.05 | 0.05 | 98 | 1009.5 |
| 20260509115041 | 18 | 122 | 0.0 | 0.0 | 0.00 | 0.05 | 0.05 | 99 | 1009.4 |
| 20260509114538 | 18 | 122 | 0.0 | 0.0 | 0.18 | 0.05 | 0.05 | 99 | 1009.5 |
| 20260509114037 | 18 | 122 | 0.0 | 0.0 | 0.18 | 0.05 | 0.05 | 98 | 1009.1 |
| 20260509113535 | 17 | 122 | 0.0 | 0.0 | 0.00 | 0.03 | 0.03 | 98 | 1009.3 |
| 20260509113032 | 17 | 122 | 0.0 | 0.0 | 0.00 | 0.03 | 0.03 | 99 | 1009.2 |
| 20260509112528 | 17 | 122 | 0.0 | 0.0 | 0.00 | 0.03 | 0.03 | 98 | 1009.4 |
| 20260509112025 | 17 | 96 | 1.6 | 1.6 | 0.00 | 0.03 | 0.03 | 98 | 1009.4 |
| 20260509111523 | 17 | 143 | 0.0 | 0.0 | 0.00 | 0.03 | 0.03 | 98 | 1009.3 |
| 20260509111020 | 17 | 144 | 0.0 | 0.0 | 0.00 | 0.03 | 0.03 | 98 | 1009.4 |
| 20260509110516 | 17 | 106 | 0.0 | 0.0 | 0.00 | 0.03 | 0.03 | 98 | 1009.0 |
| 20260509110014 | 17 | 169 | 0.0 | 0.0 | 0.00 | 0.03 | 0.03 | 98 | 1008.9 |
| 20260509105512 | 17 | 169 | 0.0 | 0.0 | 0.00 | 0.03 | 0.03 | 98 | 1009.0 |
| 20260509105009 | 17 | 168 | 0.0 | 0.0 | 0.00 | 0.03 | 0.03 | 98 | 1008.8 |
| 20260509104506 | 17 | 169 | 0.0 | 0.0 | 0.00 | 0.03 | 0.03 | 98 | 1008.8 |
| 20260509104003 | 17 | 169 | 0.0 | 0.0 | 0.00 | 0.03 | 0.03 | 98 | 1008.7 |
| 20260509103500 | 17 | 168 | 0.0 | 0.0 | 0.00 | 0.03 | 0.03 | 98 | 1008.4 |
| 20260509102958 | 17 | 168 | 0.0 | 0.0 | 0.00 | 0.03 | 0.03 | 98 | 1008.5 |
| 20260509102455 | 17 | 169 | 0.0 | 0.0 | 0.00 | 0.03 | 0.03 | 98 | 1008.2 |
| 20260509101952 | 17 | 169 | 0.0 | 0.0 | 0.00 | 0.03 | 0.03 | 98 | 1008.3 |
| 20260509101448 | 17 | 169 | 0.0 | 0.0 | 0.00 | 0.03 | 0.03 | 98 | 1008.4 |
| 20260509100946 | 17 | 169 | 0.0 | 0.0 | 0.00 | 0.03 | 0.03 | 98 | 1008.4 |
| 20260509100443 | 17 | 169 | 0.0 | 0.0 | 0.00 | 0.03 | 0.03 | 98 | 1008.4 |
| 20260509095939 | 17 | 169 | 0.0 | 0.0 | 0.00 | 0.03 | 0.03 | 98 | 1008.0 |
| 20260509095436 | 17 | 169 | 0.0 | 0.0 | 0.00 | 0.03 | 0.03 | 98 | 1008.1 |
| 20260509094934 | 17 | 169 | 0.0 | 0.0 | 0.00 | 0.03 | 0.03 | 98 | 1008.1 |
| 20260509094430 | 17 | 169 | 0.0 | 0.0 | 0.00 | 0.03 | 0.03 | 98 | 1008.0 |
| 20260509093928 | 17 | 169 | 0.0 | 0.0 | 0.00 | 0.03 | 0.03 | 98 | 1008.4 |
| 20260509093425 | 17 | 169 | 0.0 | 0.0 | 0.00 | 0.03 | 0.03 | 98 | 1008.2 |
| 20260509092923 | 17 | 169 | 0.0 | 0.0 | 0.00 | 0.03 | 0.03 | 98 | 1008.1 |
| 20260509092420 | 17 | 169 | 0.0 | 0.0 | 0.00 | 0.03 | 0.03 | 98 | 1008.0 |
| 20260509091919 | 17 | 169 | 0.0 | 0.0 | 0.00 | 0.03 | 0.03 | 98 | 1008.1 |
| 20260509091415 | 17 | 169 | 0.0 | 0.0 | 0.00 | 0.03 | 0.03 | 98 | 1008.0 |
| 20260509090913 | 17 | 169 | 0.0 | 0.0 | 0.00 | 0.03 | 0.03 | 98 | 1007.9 |
| 20260509090409 | 17 | 169 | 0.0 | 0.0 | 0.00 | 0.03 | 0.03 | 98 | 1008.1 |
| 20260509085908 | 17 | 169 | 0.0 | 0.0 | 0.00 | 0.03 | 0.03 | 98 | 1008.0 |
| 20260509085404 | 17 | 169 | 0.0 | 0.0 | 0.00 | 0.03 | 0.03 | 98 | 1008.2 |
| 20260509084900 | 17 | 169 | 0.0 | 0.0 | 0.00 | 0.03 | 0.03 | 98 | 1008.2 |
| 20260509084357 | 18 | 169 | 0.0 | 0.0 | 0.00 | 0.03 | 0.03 | 98 | 1008.3 |
| 20260509083855 | 18 | 169 | 0.0 | 0.0 | 0.00 | 0.03 | 0.03 | 98 | 1008.4 |
| 20260509083351 | 18 | 169 | 0.0 | 0.0 | 0.00 | 0.03 | 0.03 | 98 | 1008.4 |
| 20260509082848 | 18 | 169 | 1.6 | 1.6 | 0.00 | 0.03 | 0.03 | 98 | 1008.6 |
| 20260509082345 | 18 | 169 | 0.0 | 0.0 | 0.00 | 0.03 | 0.03 | 98 | 1008.7 |
| 20260509081842 | 18 | 165 | 1.6 | 1.6 | 0.00 | 0.03 | 0.03 | 98 | 1008.8 |
| 20260509081339 | 18 | 107 | 0.0 | 0.0 | 0.00 | 0.03 | 0.03 | 98 | 1008.5 |
| 20260509080837 | 18 | 108 | 0.0 | 1.6 | 0.00 | 0.03 | 0.03 | 98 | 1008.7 |
| 20260509080335 | 18 | 109 | 0.0 | 0.0 | 0.00 | 0.03 | 0.03 | 98 | 1008.7 |
| 20260509075833 | 18 | 136 | 0.0 | 0.0 | 0.00 | 0.03 | 0.03 | 98 | 1008.9 |
| 20260509075330 | 18 | 171 | 0.0 | 0.0 | 0.00 | 0.03 | 0.03 | 98 | 1009.3 |
| 20260509074827 | 18 | 158 | 0.0 | 0.0 | 0.00 | 0.03 | 0.03 | 98 | 1009.4 |
| 20260509074325 | 18 | 115 | 1.6 | 1.6 | 0.00 | 0.03 | 0.03 | 98 | 1009.1 |
| 20260509073820 | 18 | 116 | 1.6 | 1.6 | 0.00 | 0.03 | 0.03 | 98 | 1009.3 |
| 20260509073317 | 18 | 139 | 0.0 | 0.0 | 0.00 | 0.03 | 0.03 | 98 | 1009.2 |
| 20260509072814 | 18 | 160 | 0.0 | 0.0 | 0.00 | 0.03 | 0.03 | 98 | 1009.0 |
| 20260509072310 | 18 | 176 | 0.0 | 0.0 | 0.00 | 0.03 | 0.03 | 98 | 1009.0 |
| 20260509071807 | 18 | 135 | 0.0 | 0.0 | 0.00 | 0.03 | 0.03 | 98 | 1009.1 |
| 20260509071304 | 18 | 113 | 0.0 | 1.6 | 0.00 | 0.03 | 0.03 | 98 | 1009.1 |
| 20260509070801 | 18 | 163 | 0.0 | 0.0 | 0.00 | 0.03 | 0.03 | 98 | 1009.4 |
| 20260509070258 | 18 | 104 | 1.6 | 1.6 | 0.00 | 0.03 | 0.03 | 98 | 1009.1 |
| 20260509065754 | 18 | 90 | 1.6 | 3.2 | 0.00 | 0.03 | 0.03 | 98 | 1008.9 |
| 20260509065250 | 18 | 113 | 0.0 | 0.0 | 0.00 | 0.03 | 0.03 | 98 | 1009.1 |
| 20260509064747 | 18 | 124 | 0.0 | 0.0 | 0.00 | 0.03 | 0.03 | 98 | 1009.2 |
| 20260509064244 | 18 | 170 | 0.0 | 0.0 | 0.00 | 0.03 | 0.03 | 98 | 1009.6 |
| 20260509063741 | 18 | 123 | 0.0 | 1.6 | 0.00 | 0.03 | 0.03 | 98 | 1009.5 |
| 20260509063238 | 18 | 117 | 1.6 | 1.6 | 0.00 | 0.03 | 0.03 | 98 | 1009.5 |
| 20260509062735 | 18 | 119 | 1.6 | 1.6 | 0.00 | 0.03 | 0.03 | 97 | 1009.3 |
| 20260509062232 | 18 | 35 | 1.6 | 1.6 | 0.00 | 0.03 | 0.03 | 97 | 1009.2 |
| 20260509061729 | 18 | 99 | 1.6 | 1.6 | 0.00 | 0.03 | 0.03 | 98 | 1009.4 |
| 20260509061227 | 18 | 70 | 1.6 | 3.2 | 0.00 | 0.03 | 0.03 | 97 | 1009.0 |
| 20260509060724 | 18 | 105 | 0.0 | 1.6 | 0.00 | 0.03 | 0.03 | 97 | 1009.3 |
| 20260509060221 | 18 | 175 | 1.6 | 3.2 | 0.00 | 0.03 | 0.03 | 98 | 1009.4 |
| 20260509055716 | 18 | 111 | 1.6 | 1.6 | 0.00 | 0.03 | 0.03 | 97 | 1009.7 |
| 20260509055212 | 18 | 203 | 3.2 | 3.2 | 0.00 | 0.03 | 0.03 | 97 | 1009.4 |
| 20260509054709 | 18 | 133 | 1.6 | 1.6 | 0.00 | 0.03 | 0.03 | 97 | 1009.6 |
| 20260509054206 | 18 | 183 | 0.0 | 0.0 | 0.00 | 0.03 | 0.03 | 97 | 1009.1 |
| 20260509053705 | 18 | 157 | 1.6 | 1.6 | 0.00 | 0.03 | 0.03 | 97 | 1009.2 |
| 20260509053201 | 18 | 130 | 1.6 | 1.6 | 0.00 | 0.03 | 0.03 | 97 | 1008.6 |
| 20260509052659 | 18 | 157 | 0.0 | 0.0 | 0.00 | 0.03 | 0.03 | 97 | 1008.9 |
| 20260509052156 | 18 | 175 | 0.0 | 0.0 | 0.00 | 0.03 | 0.03 | 97 | 1009.0 |